Time;durP1;ratioP1;P1;durP2;ratioP2;P2;SDS_P1;SDS_P2;PMS_P1;PMS_P2;Temp;Humidity;BMP_temperature;BMP_pressure;BME280_temperature;BME280_humidity;BME280_pressure;Samples;Min_cycle;Max_cycle;Signal;HPM_P1;HPM_P2
2021/09/20 00:02:22;;;;;;;;;;;;;;;12.17;100.00;99214.44;5083365;28;19920;-61
2021/09/20 00:04:47;;;;;;;;;;;;;;;12.62;100.00;99211.09;5081519;28;20282;-61
2021/09/20 00:07:13;;;;;;;;;;;;;;;12.76;100.00;99210.59;5097219;28;19927;-64
2021/09/20 00:09:38;;;;;;;;;;;;;;;12.94;100.00;99209.88;5084718;28;20366;-63
2021/09/20 00:12:04;;;;;;;;;;;;;;;12.86;100.00;99211.91;5069019;28;19927;-64
2021/09/20 00:14:29;;;;;;;;;;;;;;;13.02;100.00;99204.41;5104137;28;20333;-63
2021/09/20 00:16:55;;;;;;;;;;;;;;;12.92;100.00;99198.75;5101539;28;20012;-64
2021/09/20 00:19:20;;;;;;;;;;;;;;;12.91;100.00;99199.69;5102265;28;19924;-63
2021/09/20 00:21:46;;;;;;;;;;;;;;;12.82;100.00;99202.63;5085790;28;19923;-63
2021/09/20 00:24:11;;;;;;;;;;;;;;;12.76;100.00;99203.66;5086136;28;19922;-63
2021/09/20 00:26:37;;;;;;;;;;;;;;;12.78;100.00;99206.22;5081902;28;20327;-63
2021/09/20 00:29:02;;;;;;;;;;;;;;;12.65;100.00;99210.16;5087711;28;20391;-63
2021/09/20 00:31:28;;;;;;;;;;;;;;;12.86;100.00;99204.16;5085070;28;20007;-61
2021/09/20 00:33:53;;;;;;;;;;;;;;;12.82;100.00;99202.63;5089548;28;19912;-62
2021/09/20 00:36:19;;;;;;;;;;;;;;;12.58;100.00;99211.28;5087888;28;20359;-61
2021/09/20 00:38:44;;;;;;;;;;;;;;;12.31;100.00;99211.38;5085320;28;19926;-62
2021/09/20 00:41:11;;;;;;;;;;;;;;;12.11;100.00;99209.47;5088982;28;20386;-61
2021/09/20 00:43:36;;;;;;;;;;;;;;;11.82;100.00;99213.06;5085236;28;19934;-63
2021/09/20 00:46:05;;;;;;;;;;;;;;;11.37;100.00;99213.66;5085556;28;19920;-63
2021/09/20 00:48:31;;;;;;;;;;;;;;;11.84;100.00;99206.09;5069937;28;19923;-63
2021/09/20 00:50:56;;;;;;;;;;;;;;;11.95;100.00;99204.03;5086668;28;19919;-62
2021/09/20 00:53:22;;;;;;;;;;;;;;;12.06;100.00;99208.81;5069872;28;19969;-63
2021/09/20 00:55:47;;;;;;;;;;;;;;;11.31;100.00;99206.94;5084202;28;20373;-63
2021/09/20 00:58:13;;;;;;;;;;;;;;;11.06;100.00;99209.44;5069822;28;19920;-63
2021/09/20 01:00:39;;;;;;;;;;;;;;;11.13;100.00;99208.38;5084629;28;19916;-63
2021/09/20 01:03:04;;;;;;;;;;;;;;;11.35;100.00;99207.69;5084113;28;20014;-63
2021/09/20 01:05:30;;;;;;;;;;;;;;;11.53;100.00;99201.94;5084792;28;19922;-61
2021/09/20 01:07:55;;;;;;;;;;;;;;;11.67;100.00;99204.06;5083620;28;19919;-63
2021/09/20 01:10:20;;;;;;;;;;;;;;;11.85;100.00;99207.78;5084269;28;19919;-63
2021/09/20 01:12:46;;;;;;;;;;;;;;;11.32;100.00;99206.06;5084561;28;19939;-63
2021/09/20 01:15:12;;;;;;;;;;;;;;;11.34;100.00;99206.88;5084590;28;19920;-63
2021/09/20 01:17:43;;;;;;;;;;;;;;;11.32;100.00;99212.97;5088254;28;20454;-63
2021/09/20 01:20:11;;;;;;;;;;;;;;;11.06;100.00;99217.19;5106983;28;19916;-63
2021/09/20 01:22:36;;;;;;;;;;;;;;;11.32;100.00;99220.69;5090608;28;19927;-63
2021/09/20 01:25:02;;;;;;;;;;;;;;;11.54;100.00;99210.53;5087605;28;19920;-63
2021/09/20 01:27:29;;;;;;;;;;;;;;;11.20;100.00;99215.03;5087332;28;19919;-63
2021/09/20 01:29:54;;;;;;;;;;;;;;;10.96;100.00;99216.63;5090043;28;19937;-62
2021/09/20 01:32:20;;;;;;;;;;;;;;;10.76;100.00;99214.63;5089223;28;20006;-63
2021/09/20 01:34:45;;;;;;;;;;;;;;;10.85;100.00;99219.50;5089937;28;19919;-63
2021/09/20 01:37:11;;;;;;;;;;;;;;;10.50;100.00;99222.28;5084634;28;20023;-65
2021/09/20 01:39:36;;;;;;;;;;;;;;;10.72;100.00;99228.50;5086243;28;19920;-64
2021/09/20 01:42:02;;;;;;;;;;;;;;;10.43;100.00;99226.75;5088039;28;19923;-63
2021/09/20 01:44:28;;;;;;;;;;;;;;;10.21;100.00;99223.88;5089716;28;20371;-63
2021/09/20 01:46:54;;;;;;;;;;;;;;;10.23;100.00;99225.53;5103490;28;20007;-63
2021/09/20 01:49:20;;;;;;;;;;;;;;;10.11;100.00;99222.44;5088641;28;19931;-62
2021/09/20 01:51:46;;;;;;;;;;;;;;;10.42;100.00;99225.91;5086508;28;19919;-62
2021/09/20 01:54:11;;;;;;;;;;;;;;;10.08;100.00;99219.94;5087688;28;19916;-63
2021/09/20 01:56:37;;;;;;;;;;;;;;;10.39;100.00;99218.25;5072601;28;19974;-63
2021/09/20 01:59:03;;;;;;;;;;;;;;;10.34;100.00;99216.72;5087231;28;19915;-63
2021/09/20 02:01:29;;;;;;;;;;;;;;;10.37;100.00;99222.59;5107716;28;19919;-62
2021/09/20 02:03:54;;;;;;;;;;;;;;;10.44;100.00;99223.28;5088822;28;19924;-63
2021/09/20 02:06:20;;;;;;;;;;;;;;;10.25;100.00;99222.91;5088797;28;19923;-62
2021/09/20 02:08:46;;;;;;;;;;;;;;;10.13;100.00;99218.09;5089776;28;19949;-63
2021/09/20 02:11:11;;;;;;;;;;;;;;;10.08;100.00;99207.06;5085350;28;20254;-63
2021/09/20 02:13:36;;;;;;;;;;;;;;;10.18;100.00;99216.25;5089030;28;19918;-63
2021/09/20 02:16:02;;;;;;;;;;;;;;;10.20;100.00;99220.47;5080368;28;19919;-63
2021/09/20 02:18:27;;;;;;;;;;;;;;;10.17;100.00;99215.41;5087979;28;20445;-61
2021/09/20 02:20:53;;;;;;;;;;;;;;;10.07;100.00;99213.94;5088864;28;20121;-61
2021/09/20 02:23:18;;;;;;;;;;;;;;;10.30;100.00;99215.94;5085386;28;19924;-60
2021/09/20 02:25:44;;;;;;;;;;;;;;;10.12;100.00;99206.09;5088708;28;19927;-61
2021/09/20 02:28:09;;;;;;;;;;;;;;;10.20;100.00;99205.03;5084371;28;20961;-63
2021/09/20 02:30:35;;;;;;;;;;;;;;;10.11;100.00;99209.59;5086075;28;20343;-63
2021/09/20 02:33:00;;;;;;;;;;;;;;;10.32;100.00;99209.03;5088078;28;19916;-63
2021/09/20 02:35:26;;;;;;;;;;;;;;;10.39;100.00;99214.84;5089359;28;20002;-64
2021/09/20 02:37:51;;;;;;;;;;;;;;;10.35;100.00;99213.22;5087814;28;19919;-64
2021/09/20 02:40:17;;;;;;;;;;;;;;;10.44;100.00;99218.97;5083934;28;20339;-65
2021/09/20 02:42:42;;;;;;;;;;;;;;;10.37;100.00;99214.88;5086613;28;19934;-64
2021/09/20 02:45:08;;;;;;;;;;;;;;;10.22;100.00;99217.84;5088005;28;20364;-65
2021/09/20 02:47:34;;;;;;;;;;;;;;;10.10;100.00;99213.84;5084012;28;19970;-64
2021/09/20 02:50:00;;;;;;;;;;;;;;;10.17;100.00;99219.69;5088629;28;19966;-63
2021/09/20 02:52:25;;;;;;;;;;;;;;;10.15;100.00;99218.88;5088171;28;19919;-62
2021/09/20 02:54:51;;;;;;;;;;;;;;;10.09;100.00;99219.06;5087890;28;19922;-64
2021/09/20 02:57:16;;;;;;;;;;;;;;;10.19;100.00;99223.06;5087496;28;20006;-64
2021/09/20 03:00:03;;;;;;;;;;;;;;;10.23;100.00;99222.09;5086525;28;19930;-64
2021/09/20 03:02:29;;;;;;;;;;;;;;;9.98;100.00;99220.19;5096636;28;19915;-62
2021/09/20 03:04:54;;;;;;;;;;;;;;;9.89;100.00;99217.00;5098393;28;19931;-61
2021/09/20 03:07:19;;;;;;;;;;;;;;;9.74;100.00;99228.50;5102962;28;20358;-62
2021/09/20 03:09:45;;;;;;;;;;;;;;;9.84;100.00;99222.28;5102365;28;19918;-61
2021/09/20 03:12:10;;;;;;;;;;;;;;;9.77;100.00;99231.03;5099852;28;19931;-61
2021/09/20 03:14:36;;;;;;;;;;;;;;;9.69;100.00;99222.66;5099438;28;20364;-63
2021/09/20 03:17:01;;;;;;;;;;;;;;;9.95;100.00;99222.84;5099078;28;19923;-63
2021/09/20 03:19:27;;;;;;;;;;;;;;;9.82;100.00;99229.19;5081328;28;20011;-62
2021/09/20 03:21:52;;;;;;;;;;;;;;;9.98;100.00;99227.91;5097640;28;19915;-62
2021/09/20 03:24:17;;;;;;;;;;;;;;;9.90;100.00;99237.56;5078390;28;19911;-64
2021/09/20 03:26:43;;;;;;;;;;;;;;;9.92;100.00;99234.94;5080277;28;20011;-63
2021/09/20 03:29:08;;;;;;;;;;;;;;;9.76;100.00;99237.91;5105877;28;20369;-61
2021/09/20 03:31:33;;;;;;;;;;;;;;;10.08;100.00;99237.94;5098597;28;19930;-63
2021/09/20 03:33:59;;;;;;;;;;;;;;;10.20;100.00;99235.91;5097217;28;19924;-62
2021/09/20 03:36:24;;;;;;;;;;;;;;;10.21;100.00;99239.31;5099712;28;19923;-62
2021/09/20 03:38:50;;;;;;;;;;;;;;;10.15;100.00;99237.78;5098222;28;19930;-62
2021/09/20 03:41:15;;;;;;;;;;;;;;;10.08;100.00;99245.66;5099385;28;20010;-63
2021/09/20 03:43:40;;;;;;;;;;;;;;;9.96;100.00;99246.84;5097358;28;19920;-64
2021/09/20 03:46:06;;;;;;;;;;;;;;;9.93;100.00;99249.50;5098671;28;19916;-63
2021/09/20 03:48:31;;;;;;;;;;;;;;;10.00;100.00;99259.56;5100399;28;20597;-63
2021/09/20 03:50:57;;;;;;;;;;;;;;;9.97;100.00;99264.81;5094566;28;19916;-62
2021/09/20 03:53:22;;;;;;;;;;;;;;;10.10;100.00;99270.47;5097931;28;19929;-63
2021/09/20 03:55:47;;;;;;;;;;;;;;;10.10;100.00;99267.06;5096485;28;19919;-63
2021/09/20 03:58:13;;;;;;;;;;;;;;;10.18;100.00;99267.72;5081579;28;19972;-63
2021/09/20 04:00:38;;;;;;;;;;;;;;;10.18;100.00;99265.16;5102299;28;19927;-61
2021/09/20 04:03:03;;;;;;;;;;;;;;;10.04;100.00;99271.50;5099422;28;20240;-64
2021/09/20 04:05:29;;;;;;;;;;;;;;;10.18;100.00;99278.84;5069495;28;20361;-63
2021/09/20 04:07:54;;;;;;;;;;;;;;;10.19;100.00;99279.69;5099374;28;20305;-63
2021/09/20 04:10:20;;;;;;;;;;;;;;;10.09;100.00;99273.09;5099568;28;19916;-63
2021/09/20 04:12:45;;;;;;;;;;;;;;;10.17;100.00;99277.19;5099984;28;19951;-63
2021/09/20 04:15:11;;;;;;;;;;;;;;;9.83;100.00;99282.31;5097574;28;19927;-64
2021/09/20 04:17:36;;;;;;;;;;;;;;;9.92;100.00;99281.22;5096969;28;19924;-61
2021/09/20 04:20:02;;;;;;;;;;;;;;;9.70;100.00;99281.78;5098794;28;19919;-63
2021/09/20 04:22:27;;;;;;;;;;;;;;;9.98;100.00;99273.38;5100749;28;20254;-63
2021/09/20 04:24:53;;;;;;;;;;;;;;;9.91;100.00;99279.56;5100859;28;19927;-62
2021/09/20 04:27:20;;;;;;;;;;;;;;;9.86;100.00;99274.53;5081281;28;20327;-61
2021/09/20 04:29:45;;;;;;;;;;;;;;;9.89;100.00;99277.00;5102108;28;19927;-62
2021/09/20 04:32:11;;;;;;;;;;;;;;;9.68;100.00;99277.53;5097389;28;19915;-62
2021/09/20 04:34:36;;;;;;;;;;;;;;;9.80;100.00;99285.78;5099810;28;20437;-63
2021/09/20 04:37:02;;;;;;;;;;;;;;;9.56;100.00;99283.81;5103526;28;19919;-61
2021/09/20 04:39:27;;;;;;;;;;;;;;;9.52;100.00;99283.03;5098844;28;20423;-61
2021/09/20 04:41:52;;;;;;;;;;;;;;;9.60;100.00;99291.44;5095557;28;20314;-61
2021/09/20 04:44:17;;;;;;;;;;;;;;;9.67;100.00;99291.28;5099906;28;19922;-61
2021/09/20 04:46:43;;;;;;;;;;;;;;;9.57;100.00;99295.78;5102070;28;19916;-61
2021/09/20 04:49:08;;;;;;;;;;;;;;;9.79;100.00;99293.56;5099066;28;20003;-64
2021/09/20 04:51:34;;;;;;;;;;;;;;;9.80;100.00;99297.81;5096146;28;19920;-61
2021/09/20 04:53:59;;;;;;;;;;;;;;;9.79;100.00;99306.44;5099586;28;19966;-61
2021/09/20 04:56:26;;;;;;;;;;;;;;;9.72;100.00;99310.88;5081415;28;20007;-60
2021/09/20 04:58:52;;;;;;;;;;;;;;;9.61;100.00;99307.69;5093724;28;20389;-64
2021/09/20 05:01:17;;;;;;;;;;;;;;;9.68;100.00;99316.13;5094774;28;20002;-62
2021/09/20 05:03:42;;;;;;;;;;;;;;;9.87;100.00;99309.63;5096324;28;19912;-61
2021/09/20 05:06:08;;;;;;;;;;;;;;;9.79;100.00;99311.56;5095379;28;19916;-61
2021/09/20 05:08:33;;;;;;;;;;;;;;;9.52;100.00;99313.91;5092836;28;20002;-61
2021/09/20 05:10:59;;;;;;;;;;;;;;;9.76;100.00;99317.63;5096131;28;19930;-61
2021/09/20 05:13:24;;;;;;;;;;;;;;;9.51;100.00;99317.34;5098372;28;19920;-60
2021/09/20 05:15:50;;;;;;;;;;;;;;;9.30;100.00;99320.38;5063554;28;19912;-61
2021/09/20 05:18:15;;;;;;;;;;;;;;;9.49;100.00;99321.69;5098786;28;19912;-60
2021/09/20 05:20:40;;;;;;;;;;;;;;;9.63;100.00;99317.06;5095487;28;19989;-63
2021/09/20 05:23:06;;;;;;;;;;;;;;;9.74;100.00;99324.53;5097239;28;19951;-61
2021/09/20 05:25:31;;;;;;;;;;;;;;;9.93;100.00;99330.09;5098601;28;20019;-62
2021/09/20 05:27:56;;;;;;;;;;;;;;;9.75;100.00;99321.06;5098188;28;20506;-62
2021/09/20 05:30:22;;;;;;;;;;;;;;;9.93;100.00;99330.09;5094754;28;19923;-62
2021/09/20 05:32:47;;;;;;;;;;;;;;;9.78;100.00;99336.47;5077557;28;19939;-62
2021/09/20 05:35:13;;;;;;;;;;;;;;;9.78;100.00;99340.72;5078595;28;19915;-63
2021/09/20 05:37:38;;;;;;;;;;;;;;;9.54;100.00;99339.59;5101665;28;19931;-63
2021/09/20 05:40:04;;;;;;;;;;;;;;;9.51;100.00;99343.06;5076531;28;19923;-62
2021/09/20 05:42:30;;;;;;;;;;;;;;;9.66;100.00;99341.03;5096440;28;19998;-63
2021/09/20 05:44:55;;;;;;;;;;;;;;;9.73;100.00;99347.72;5102132;28;19933;-61
2021/09/20 05:47:20;;;;;;;;;;;;;;;9.64;100.00;99339.31;5100369;28;19995;-64
2021/09/20 05:49:46;;;;;;;;;;;;;;;9.71;100.00;99334.88;5093537;28;20447;-61
2021/09/20 05:52:11;;;;;;;;;;;;;;;9.63;100.00;99342.78;5094053;28;19924;-63
2021/09/20 05:54:36;;;;;;;;;;;;;;;9.74;100.00;99347.69;5060815;28;19916;-62
2021/09/20 05:57:02;;;;;;;;;;;;;;;9.66;100.00;99343.59;5063939;28;19912;-61
2021/09/20 05:59:27;;;;;;;;;;;;;;;9.74;100.00;99345.13;5097339;28;20003;-64
2021/09/20 06:01:53;;;;;;;;;;;;;;;9.79;100.00;99337.28;5098261;28;19912;-63
2021/09/20 06:04:18;;;;;;;;;;;;;;;9.82;100.00;99344.94;5083815;28;19912;-62
2021/09/20 06:06:44;;;;;;;;;;;;;;;9.76;100.00;99343.34;5060678;28;19924;-63
2021/09/20 06:09:09;;;;;;;;;;;;;;;9.84;100.00;99348.31;5099557;28;19912;-63
2021/09/20 06:11:35;;;;;;;;;;;;;;;9.86;100.00;99349.13;5083187;28;20293;-63
2021/09/20 06:14:00;;;;;;;;;;;;;;;10.00;100.00;99346.22;5100348;28;20015;-64
2021/09/20 06:16:25;;;;;;;;;;;;;;;10.13;100.00;99346.78;5099718;28;20059;-60
2021/09/20 06:18:50;;;;;;;;;;;;;;;10.53;100.00;99356.09;5100743;28;19924;-64
2021/09/20 06:21:16;;;;;;;;;;;;;;;10.75;100.00;99357.22;5097900;28;20723;-64
2021/09/20 06:23:41;;;;;;;;;;;;;;;10.88;100.00;99353.41;5099768;28;19927;-62
2021/09/20 06:26:07;;;;;;;;;;;;;;;10.74;100.00;99355.53;5093610;27;19919;-64
2021/09/20 06:28:32;;;;;;;;;;;;;;;10.86;100.00;99362.91;5103030;28;19958;-61
2021/09/20 06:31:02;;;;;;;;;;;;;;;10.95;100.00;99366.09;5103081;28;19951;-62
2021/09/20 06:33:27;;;;;;;;;;;;;;;10.49;100.00;99370.78;5083557;28;20018;-63
2021/09/20 06:35:55;;;;;;;;;;;;;;;10.63;100.00;99373.84;5082862;28;20003;-64
2021/09/20 06:38:20;;;;;;;;;;;;;;;10.91;100.00;99369.69;5101031;28;19928;-61
2021/09/20 06:40:46;;;;;;;;;;;;;;;11.19;100.00;99365.44;5101587;28;20292;-62
2021/09/20 06:43:11;;;;;;;;;;;;;;;11.00;100.00;99366.84;5081372;28;19919;-62
2021/09/20 06:45:36;;;;;;;;;;;;;;;11.07;100.00;99365.78;5096695;28;19923;-63
2021/09/20 06:48:02;;;;;;;;;;;;;;;10.95;100.00;99373.84;5100326;28;20413;-64
2021/09/20 06:50:27;;;;;;;;;;;;;;;10.98;100.00;99373.78;5098795;28;19915;-63
2021/09/20 06:52:54;;;;;;;;;;;;;;;11.01;100.00;99371.09;5099037;28;19958;-64
2021/09/20 06:55:19;;;;;;;;;;;;;;;11.19;100.00;99370.56;5077590;28;19919;-61
2021/09/20 06:57:45;;;;;;;;;;;;;;;11.09;100.00;99371.75;5079254;28;20265;-61
2021/09/20 07:00:12;;;;;;;;;;;;;;;11.15;100.00;99376.72;5100224;28;19912;-63
2021/09/20 07:02:37;;;;;;;;;;;;;;;11.48;100.00;99374.06;5098346;28;19920;-61
2021/09/20 07:05:02;;;;;;;;;;;;;;;11.81;100.00;99373.91;5079904;28;20030;-61
2021/09/20 07:07:28;;;;;;;;;;;;;;;11.89;100.00;99380.56;5095521;28;19974;-62
2021/09/20 07:09:53;;;;;;;;;;;;;;;12.28;100.00;99374.19;5079890;28;19916;-63
2021/09/20 07:12:18;;;;;;;;;;;;;;;12.20;100.00;99378.72;5096991;28;20050;-64
2021/09/20 07:14:44;;;;;;;;;;;;;;;12.66;100.00;99372.06;5078744;28;19915;-64
2021/09/20 07:17:09;;;;;;;;;;;;;;;12.63;100.00;99372.97;5097991;28;20307;-64
2021/09/20 07:19:34;;;;;;;;;;;;;;;12.83;100.00;99369.69;5097505;28;20384;-64
2021/09/20 07:22:00;;;;;;;;;;;;;;;12.68;100.00;99370.22;5098182;28;19919;-64
2021/09/20 07:24:26;;;;;;;;;;;;;;;13.00;100.00;99365.66;5098742;28;19915;-63
2021/09/20 07:26:51;;;;;;;;;;;;;;;12.90;100.00;99371.16;5081615;28;20171;-63
2021/09/20 07:29:17;;;;;;;;;;;;;;;12.76;100.00;99373.41;5098188;28;20257;-63
2021/09/20 07:31:42;;;;;;;;;;;;;;;13.24;100.00;99380.28;5098476;28;19920;-64
2021/09/20 07:34:08;;;;;;;;;;;;;;;13.11;100.00;99384.22;5101131;28;19915;-63
2021/09/20 07:36:35;;;;;;;;;;;;;;;13.71;100.00;99385.47;5101491;28;19924;-63
2021/09/20 07:39:00;;;;;;;;;;;;;;;13.63;100.00;99387.50;5100723;28;19995;-63
2021/09/20 07:41:26;;;;;;;;;;;;;;;13.78;100.00;99391.25;5100296;27;20003;-63
2021/09/20 07:43:51;;;;;;;;;;;;;;;13.57;100.00;99395.47;5100182;28;19915;-64
2021/09/20 07:46:22;;;;;;;;;;;;;;;14.02;100.00;99399.78;5100095;28;19965;-61
2021/09/20 07:48:47;;;;;;;;;;;;;;;14.31;100.00;99397.78;5102611;28;19916;-61
2021/09/20 07:51:13;;;;;;;;;;;;;;;14.57;100.00;99395.00;5104905;28;20799;-64
2021/09/20 07:53:38;;;;;;;;;;;;;;;14.34;100.00;99395.03;5098689;28;19920;-63
2021/09/20 07:56:04;;;;;;;;;;;;;;;14.27;100.00;99398.81;5101223;28;20563;-63
2021/09/20 07:58:29;;;;;;;;;;;;;;;14.43;100.00;99394.66;5103987;28;19915;-62
2021/09/20 08:00:59;;;;;;;;;;;;;;;13.97;100.00;99391.34;5097036;28;19955;-63
2021/09/20 08:03:24;;;;;;;;;;;;;;;14.21;100.00;99392.97;5099755;28;19960;-64
2021/09/20 08:05:53;;;;;;;;;;;;;;;14.27;100.00;99391.88;5098816;28;20332;-63
2021/09/20 08:08:19;;;;;;;;;;;;;;;14.71;100.00;99399.59;5098481;28;19967;-60
2021/09/20 08:10:50;;;;;;;;;;;;;;;14.72;100.00;99400.41;5081628;28;19962;-64
2021/09/20 08:13:19;;;;;;;;;;;;;;;14.68;100.00;99398.84;5100868;28;19916;-64
2021/09/20 08:15:47;;;;;;;;;;;;;;;14.64;100.00;99401.59;5081627;28;19923;-63
2021/09/20 08:18:14;;;;;;;;;;;;;;;14.76;100.00;99402.81;5097403;28;20373;-62
2021/09/20 08:20:43;;;;;;;;;;;;;;;15.58;100.00;99409.59;5080996;28;19915;-61
2021/09/20 08:23:12;;;;;;;;;;;;;;;15.52;100.00;99407.28;5102184;28;19912;-63
2021/09/20 08:25:37;;;;;;;;;;;;;;;15.86;100.00;99410.00;5099110;28;19916;-63
2021/09/20 08:28:03;;;;;;;;;;;;;;;15.36;100.00;99417.50;5100065;28;19918;-63
2021/09/20 08:30:28;;;;;;;;;;;;;;;15.89;100.00;99412.47;5081377;28;19939;-63
2021/09/20 08:32:53;;;;;;;;;;;;;;;16.04;100.00;99421.28;5101454;28;20321;-63
2021/09/20 08:35:19;;;;;;;;;;;;;;;15.52;100.00;99422.84;5100676;28;19973;-62
2021/09/20 08:37:45;;;;;;;;;;;;;;;16.10;100.00;99414.94;5103249;28;19965;-62
2021/09/20 08:40:10;;;;;;;;;;;;;;;16.47;100.00;99415.78;5098901;28;19926;-63
2021/09/20 08:42:36;;;;;;;;;;;;;;;15.93;100.00;99428.75;5100321;28;20002;-63
2021/09/20 08:45:03;;;;;;;;;;;;;;;16.34;97.06;99428.53;5081156;28;19961;-64
2021/09/20 08:47:28;;;;;;;;;;;;;;;16.86;95.90;99419.91;5100179;28;19916;-63
2021/09/20 08:49:53;;;;;;;;;;;;;;;16.78;88.14;99417.66;5081328;28;19930;-64
2021/09/20 08:52:23;;;;;;;;;;;;;;;17.09;88.38;99427.38;5076301;28;19971;-63
2021/09/20 08:54:49;;;;;;;;;;;;;;;16.64;86.53;99426.16;5061402;28;20454;-63
2021/09/20 08:57:14;;;;;;;;;;;;;;;17.01;87.08;99428.69;5098953;28;19920;-62
2021/09/20 08:59:40;;;;;;;;;;;;;;;16.99;84.46;99436.59;5097509;28;19916;-63
2021/09/20 09:02:05;;;;;;;;;;;;;;;16.70;86.47;99433.66;5098531;28;20354;-64
2021/09/20 09:04:32;;;;;;;;;;;;;;;16.81;85.75;99429.69;5079146;28;19962;-64
2021/09/20 09:07:05;;;;;;;;;;;;;;;16.91;84.54;99438.72;5057082;28;20634;-63
2021/09/20 09:09:32;;;;;;;;;;;;;;;16.33;84.64;99438.97;5075355;28;19912;-65
2021/09/20 09:12:30;;;;;;;;;;;;;;;16.88;83.58;99438.91;5075488;28;19915;-63
2021/09/20 09:14:56;;;;;;;;;;;;;;;16.60;87.96;99444.59;5046431;28;20010;-61
2021/09/20 09:17:23;;;;;;;;;;;;;;;17.55;92.52;99443.16;5079899;28;19923;-62
2021/09/20 09:19:59;;;;;;;;;;;;;;;16.73;88.19;99454.31;5064620;28;19912;-64
2021/09/20 09:22:37;;;;;;;;;;;;;;;17.35;81.33;99456.38;5076830;28;19973;-62
2021/09/20 09:25:04;;;;;;;;;;;;;;;16.42;88.76;99464.53;5061579;28;19916;-63
2021/09/20 09:27:29;;;;;;;;;;;;;;;17.48;89.85;99465.25;5061744;28;19920;-63
2021/09/20 09:30:04;;;;;;;;;;;;;;;16.67;94.08;99467.63;5060182;28;19912;-64
2021/09/20 09:32:30;;;;;;;;;;;;;;;17.37;92.67;99457.16;5079157;28;19916;-63
2021/09/20 09:34:56;;;;;;;;;;;;;;;16.84;90.19;99452.97;5080229;28;19919;-63
2021/09/20 09:37:21;;;;;;;;;;;;;;;16.60;91.79;99461.03;5085314;28;20407;-62
2021/09/20 09:39:46;;;;;;;;;;;;;;;16.96;90.15;99467.13;5083558;28;19915;-61
2021/09/20 09:42:22;;;;;;;;;;;;;;;17.21;86.99;99469.28;5079825;28;20381;-63
2021/09/20 09:44:47;;;;;;;;;;;;;;;17.28;88.40;99478.47;5081279;28;20377;-63
2021/09/20 09:47:29;;;;;;;;;;;;;;;17.30;93.90;99472.25;5065276;28;19920;-62
2021/09/20 09:50:14;;;;;;;;;;;;;;;17.08;90.97;99467.34;5081953;28;19920;-64
2021/09/20 09:52:40;;;;;;;;;;;;;;;17.64;89.25;99475.69;5081224;28;19977;-62
2021/09/20 09:55:06;;;;;;;;;;;;;;;17.03;94.96;99469.31;5080665;28;19916;-62
2021/09/20 09:57:32;;;;;;;;;;;;;;;16.05;96.51;99474.91;5079932;28;20558;-63
2021/09/20 09:59:58;;;;;;;;;;;;;;;16.34;91.17;99474.47;5064463;28;19952;-61
2021/09/20 10:02:26;;;;;;;;;;;;;;;17.56;90.19;99472.63;5080825;28;19990;-63
2021/09/20 10:04:54;;;;;;;;;;;;;;;17.17;85.93;99465.16;5080735;28;19923;-63
2021/09/20 10:07:24;;;;;;;;;;;;;;;17.64;87.58;99467.03;5067263;28;20371;-65
2021/09/20 10:09:49;;;;;;;;;;;;;;;17.94;85.22;99474.97;5082191;28;19912;-62
2021/09/20 10:12:15;;;;;;;;;;;;;;;17.22;89.31;99469.22;5082470;28;20388;-65
2021/09/20 10:14:40;;;;;;;;;;;;;;;17.62;82.51;99468.88;5081237;28;19912;-63
2021/09/20 10:17:06;;;;;;;;;;;;;;;16.80;81.28;99469.66;5062863;28;21171;-64
2021/09/20 10:19:32;;;;;;;;;;;;;;;17.07;80.96;99476.03;5079248;28;19912;-64
2021/09/20 10:21:57;;;;;;;;;;;;;;;16.85;79.44;99475.44;5082553;28;19924;-64
2021/09/20 10:24:23;;;;;;;;;;;;;;;17.23;78.64;99475.25;5080247;28;20365;-65
2021/09/20 10:26:49;;;;;;;;;;;;;;;17.30;77.83;99464.44;5083466;28;19913;-63
2021/09/20 10:29:15;;;;;;;;;;;;;;;18.07;79.22;99469.94;5081916;28;19916;-63
2021/09/20 10:31:41;;;;;;;;;;;;;;;17.33;79.25;99466.91;5073864;28;19934;-64
2021/09/20 10:34:19;;;;;;;;;;;;;;;17.80;84.30;99467.88;5060363;28;19930;-65
2021/09/20 10:36:55;;;;;;;;;;;;;;;17.26;79.97;99469.88;5075060;28;19968;-61
2021/09/20 10:39:39;;;;;;;;;;;;;;;18.02;79.24;99483.22;5066168;28;19943;-63
2021/09/20 10:42:04;;;;;;;;;;;;;;;17.32;75.16;99474.78;5076833;28;19989;-63
2021/09/20 10:44:37;;;;;;;;;;;;;;;16.69;76.18;99480.53;5060047;28;19912;-65
2021/09/20 10:47:13;;;;;;;;;;;;;;;17.42;76.72;99481.19;5064035;28;19916;-63
2021/09/20 10:49:46;;;;;;;;;;;;;;;17.04;76.87;99478.81;5081250;28;19962;-61
2021/09/20 10:52:12;;;;;;;;;;;;;;;17.14;77.29;99481.78;5083612;28;19920;-63
2021/09/20 10:54:37;;;;;;;;;;;;;;;17.46;75.14;99487.09;5063286;28;20448;-64
2021/09/20 10:57:19;;;;;;;;;;;;;;;17.32;76.14;99485.19;5080432;28;19913;-63
2021/09/20 10:59:44;;;;;;;;;;;;;;;17.21;77.87;99482.31;5065700;28;19964;-61
2021/09/20 11:02:11;;;;;;;;;;;;;;;17.38;75.49;99484.88;5063915;28;19920;-63
2021/09/20 11:04:38;;;;;;;;;;;;;;;17.74;76.39;99487.31;5080296;28;20883;-63
2021/09/20 11:07:03;;;;;;;;;;;;;;;17.98;75.07;99487.75;5080243;28;19969;-63
2021/09/20 11:09:30;;;;;;;;;;;;;;;18.21;84.33;99487.44;5079960;28;19912;-63
2021/09/20 11:12:02;;;;;;;;;;;;;;;18.38;75.58;99488.16;5080422;28;20007;-63
2021/09/20 11:14:41;;;;;;;;;;;;;;;17.55;75.28;99495.25;5076819;28;19916;-63
2021/09/20 11:17:17;;;;;;;;;;;;;;;18.15;73.69;99496.41;5079681;28;19997;-63
2021/09/20 11:19:44;;;;;;;;;;;;;;;18.30;71.14;99494.72;5079841;28;19966;-63
2021/09/20 11:22:13;;;;;;;;;;;;;;;18.60;76.23;99487.75;5061067;28;20373;-61
2021/09/20 11:24:44;;;;;;;;;;;;;;;18.28;71.40;99492.19;5081526;28;19916;-61
2021/09/20 11:27:14;;;;;;;;;;;;;;;17.89;71.78;99493.47;5078090;28;19916;-63
2021/09/20 11:29:40;;;;;;;;;;;;;;;18.06;71.05;99494.31;5063743;28;19916;-61
2021/09/20 11:32:06;;;;;;;;;;;;;;;16.97;71.70;99500.88;5078425;28;19958;-61
2021/09/20 11:34:33;;;;;;;;;;;;;;;18.16;78.53;99495.50;5062569;28;19969;-64
2021/09/20 11:37:08;;;;;;;;;;;;;;;18.08;75.16;99495.06;5047956;28;19959;-64
2021/09/20 11:39:45;;;;;;;;;;;;;;;17.41;75.80;99489.94;5060550;28;19916;-65
2021/09/20 11:42:10;;;;;;;;;;;;;;;18.39;76.35;99495.03;5060831;28;19920;-62
2021/09/20 11:44:36;;;;;;;;;;;;;;;18.14;76.75;99490.38;5080758;28;20612;-63
2021/09/20 11:47:01;;;;;;;;;;;;;;;17.33;71.75;99481.66;5069294;28;19916;-63
2021/09/20 11:49:27;;;;;;;;;;;;;;;18.61;76.55;99483.41;5080446;28;19920;-64
2021/09/20 11:51:53;;;;;;;;;;;;;;;18.56;69.68;99486.25;5066822;28;19913;-63
2021/09/20 11:54:28;;;;;;;;;;;;;;;18.11;71.01;99481.84;5063156;28;19916;-64
2021/09/20 11:56:54;;;;;;;;;;;;;;;18.18;76.75;99485.84;5075693;28;19938;-65
2021/09/20 11:59:19;;;;;;;;;;;;;;;18.78;71.97;99483.28;5071824;28;20527;-65
2021/09/20 12:01:45;;;;;;;;;;;;;;;18.03;72.29;99491.88;5058939;28;19977;-64
2021/09/20 12:04:10;;;;;;;;;;;;;;;17.56;71.71;99485.66;5055635;28;19939;-65
2021/09/20 12:06:35;;;;;;;;;;;;;;;18.15;74.04;99491.19;5055687;28;19964;-64
2021/09/20 12:09:03;;;;;;;;;;;;;;;18.00;72.27;99490.28;5041825;28;19912;-61
2021/09/20 12:11:29;;;;;;;;;;;;;;;18.60;70.97;99486.94;5051745;28;19943;-61
2021/09/20 12:13:54;;;;;;;;;;;;;;;18.86;72.47;99485.47;5052742;28;20440;-61
2021/09/20 12:16:23;;;;;;;;;;;;;;;18.74;71.92;99483.53;5057433;28;21264;-63
2021/09/20 12:18:49;;;;;;;;;;;;;;;18.49;70.13;99494.53;5045187;28;19943;-65
2021/09/20 12:21:15;;;;;;;;;;;;;;;18.58;78.80;99497.44;5058601;28;19916;-64
2021/09/20 12:23:42;;;;;;;;;;;;;;;18.33;71.58;99494.56;5056533;28;19937;-63
2021/09/20 12:26:14;;;;;;;;;;;;;;;18.31;72.12;99497.22;5048968;28;19916;-62
2021/09/20 12:28:48;;;;;;;;;;;;;;;17.69;75.21;99501.47;5055078;28;19960;-63
2021/09/20 12:31:15;;;;;;;;;;;;;;;17.41;72.79;99500.34;5055840;28;19918;-63
2021/09/20 12:34:00;;;;;;;;;;;;;;;17.10;78.88;99495.88;5058207;28;19920;-63
2021/09/20 12:36:30;;;;;;;;;;;;;;;17.94;75.10;99499.25;5055119;28;19952;-63
2021/09/20 12:38:59;;;;;;;;;;;;;;;18.14;78.25;99515.59;5052204;28;19928;-63
2021/09/20 12:41:29;;;;;;;;;;;;;;;17.38;75.87;99515.25;5056756;28;19920;-63